Time;durP1;ratioP1;P1;durP2;ratioP2;P2;SDS_P1;SDS_P2;PMS_P1;PMS_P2;Temp;Humidity;BMP_temperature;BMP_pressure;BME280_temperature;BME280_humidity;BME280_pressure;Samples;Min_cycle;Max_cycle;Signal;HPM_P1;HPM_P2
2023/06/13 00:01:59;;;;;;;3.72;1.90;;;15.70;87.50;;;;;;6156335;23;20016;-80
2023/06/13 00:04:26;;;;;;;3.00;1.85;;;15.60;88.30;;;;;;6182576;23;20001;-80
2023/06/13 00:06:54;;;;;;;1.65;1.52;;;15.50;88.50;;;;;;6157337;23;20084;-81
2023/06/13 00:09:20;;;;;;;4.22;2.08;;;15.50;88.90;;;;;;6182633;23;20005;-80
2023/06/13 00:11:49;;;;;;;2.40;1.92;;;15.40;89.10;;;;;;6183532;23;20035;-79
2023/06/13 00:14:16;;;;;;;2.28;2.00;;;15.40;89.50;;;;;;6182425;23;20009;-80
2023/06/13 00:16:47;;;;;;;3.38;1.95;;;15.40;89.50;;;;;;6183084;23;20005;-80
2023/06/13 00:19:13;;;;;;;3.30;2.38;;;15.30;89.70;;;;;;6156742;23;20001;-80
2023/06/13 00:21:39;;;;;;;2.58;1.70;;;15.30;89.30;;;;;;6156828;23;20012;-79
2023/06/13 00:24:05;;;;;;;2.92;2.00;;;15.30;89.70;;;;;;6155480;23;20383;-79
2023/06/13 00:26:30;;;;;;;2.38;1.95;;;15.20;89.60;;;;;;6157754;23;20457;-79
2023/06/13 00:28:56;;;;;;;5.40;1.88;;;15.20;90.00;;;;;;6160999;23;20087;-79
2023/06/13 00:31:24;;;;;;;2.65;2.00;;;15.10;89.80;;;;;;6160000;23;20009;-79
2023/06/13 00:33:50;;;;;;;3.17;1.90;;;15.10;90.00;;;;;;6158594;23;20040;-81
2023/06/13 00:36:19;;;;;;;2.78;1.85;;;15.00;90.00;;;;;;6155477;23;20012;-79
2023/06/13 00:38:48;;;;;;;2.55;1.90;;;14.90;89.50;;;;;;6153285;23;20380;-80
2023/06/13 00:41:14;;;;;;;3.95;1.83;;;14.80;89.90;;;;;;6157432;23;20013;-80
2023/06/13 00:43:40;;;;;;;2.25;1.75;;;14.80;89.90;;;;;;6184142;23;20009;-80
2023/06/13 00:46:05;;;;;;;2.00;1.65;;;14.70;90.00;;;;;;6157557;23;20374;-80
2023/06/13 00:48:33;;;;;;;3.22;1.67;;;14.70;89.30;;;;;;6157606;23;19997;-80
2023/06/13 00:51:02;;;;;;;2.40;2.08;;;14.70;89.10;;;;;;6150566;23;20281;-80
2023/06/13 00:53:31;;;;;;;2.63;1.80;;;14.70;88.40;;;;;;6157118;23;20343;-80
2023/06/13 00:55:57;;;;;;;2.25;1.55;;;14.70;88.40;;;;;;6156821;23;20009;-80
2023/06/13 00:58:23;;;;;;;2.05;1.85;;;14.70;88.50;;;;;;6152180;23;20009;-80
2023/06/13 01:00:49;;;;;;;4.38;2.15;;;14.60;87.50;;;;;;6151912;23;20053;-79
2023/06/13 01:03:15;;;;;;;2.95;2.17;;;14.50;88.50;;;;;;6153645;23;20120;-79
2023/06/13 01:05:41;;;;;;;3.28;1.73;;;14.50;88.00;;;;;;6154075;23;20043;-80
2023/06/13 01:08:11;;;;;;;2.38;1.63;;;14.40;88.40;;;;;;6155061;23;20055;-80
2023/06/13 01:10:40;;;;;;;3.00;2.17;;;14.40;88.00;;;;;;6182569;23;20318;-79
2023/06/13 01:13:29;;;;;;;2.90;1.40;;;14.40;88.80;;;;;;6182221;23;20447;-80
2023/06/13 01:16:03;;;;;;;2.90;1.50;;;14.40;88.90;;;;;;6155020;23;20001;-79
2023/06/13 01:18:33;;;;;;;1.55;1.45;;;14.30;89.00;;;;;;6156297;23;20343;-79
2023/06/13 01:21:00;;;;;;;2.08;1.60;;;14.20;89.20;;;;;;6155392;23;20086;-79
2023/06/13 01:23:36;;;;;;;4.28;1.83;;;14.20;88.40;;;;;;6155266;23;20005;-79
2023/06/13 01:26:14;;;;;;;1.50;1.30;;;14.20;88.70;;;;;;6155304;23;20001;-79
2023/06/13 01:28:43;;;;;;;2.20;1.58;;;14.10;89.90;;;;;;6155695;23;20013;-79
2023/06/13 01:31:16;;;;;;;2.20;1.60;;;14.00;90.10;;;;;;6154746;23;20013;-79
2023/06/13 01:33:43;;;;;;;1.88;1.45;;;14.00;90.40;;;;;;6182254;23;20004;-79
2023/06/13 01:36:09;;;;;;;3.25;1.75;;;13.90;90.80;;;;;;6181830;23;20031;-79
2023/06/13 01:38:36;;;;;;;1.65;1.50;;;13.90;90.90;;;;;;6152375;23;20013;-79
2023/06/13 01:41:01;;;;;;;2.15;1.73;;;13.70;90.90;;;;;;6155678;23;20005;-79
2023/06/13 01:43:27;;;;;;;2.08;1.60;;;13.60;91.10;;;;;;6182211;23;20000;-79
2023/06/13 01:46:05;;;;;;;1.85;1.65;;;13.60;91.40;;;;;;6154906;23;20084;-80
2023/06/13 01:48:55;;;;;;;6.53;2.10;;;13.50;91.60;;;;;;6155621;23;19997;-80
2023/06/13 01:51:30;;;;;;;2.58;2.15;;;13.50;91.50;;;;;;6153762;23;20004;-84
2023/06/13 01:54:01;;;;;;;1.55;1.27;;;13.40;91.80;;;;;;6155743;23;20005;-80
2023/06/13 01:56:31;;;;;;;3.05;1.83;;;13.40;92.10;;;;;;6183031;23;20347;-80
2023/06/13 01:59:07;;;;;;;2.70;1.75;;;13.30;92.30;;;;;;6156395;23;20032;-80
2023/06/13 02:01:34;;;;;;;;;;;13.30;92.60;;;;;;6155903;23;20013;-80
2023/06/13 02:04:03;;;;;;;1.95;1.73;;;13.30;92.90;;;;;;6155727;23;19904;-80
2023/06/13 02:06:29;;;;;;;2.05;1.80;;;13.30;93.10;;;;;;6156193;23;20005;-79
2023/06/13 02:08:56;;;;;;;3.53;1.80;;;13.20;93.30;;;;;;6155775;23;20001;-80
2023/06/13 02:11:22;;;;;;;2.85;1.75;;;13.20;93.50;;;;;;6156069;23;20008;-79
2023/06/13 02:13:49;;;;;;;2.08;1.65;;;13.20;93.80;;;;;;6154369;23;20005;-81
2023/06/13 02:16:17;;;;;;;5.65;2.30;;;13.10;94.10;;;;;;6155634;23;20012;-79
2023/06/13 02:18:43;;;;;;;3.88;2.00;;;13.10;94.60;;;;;;6155762;23;20009;-79
2023/06/13 02:21:08;;;;;;;4.32;1.90;;;13.10;94.90;;;;;;6156039;23;20008;-79
2023/06/13 02:23:34;;;;;;;2.03;1.75;;;13.00;95.30;;;;;;6154899;23;20016;-79
2023/06/13 02:26:00;;;;;;;5.25;2.35;;;12.90;95.80;;;;;;6154953;23;20497;-81
2023/06/13 02:28:25;;;;;;;3.88;2.00;;;12.90;96.40;;;;;;6155402;23;20009;-79
2023/06/13 02:30:52;;;;;;;3.17;2.03;;;12.90;96.70;;;;;;6154538;23;20013;-79
2023/06/13 02:33:18;;;;;;;2.00;1.80;;;12.90;97.40;;;;;;6155577;23;20059;-79
2023/06/13 02:35:45;;;;;;;2.45;2.00;;;12.80;98.20;;;;;;6154688;23;20132;-80
2023/06/13 02:38:11;;;;;;;2.47;2.08;;;12.80;98.70;;;;;;6153192;23;20079;-79
2023/06/13 02:40:37;;;;;;;2.22;1.80;;;12.80;99.80;;;;;;6154236;23;20001;-79
2023/06/13 02:43:03;;;;;;;3.65;2.05;;;12.80;99.90;;;;;;6155537;23;20028;-80
2023/06/13 02:45:29;;;;;;;3.30;1.85;;;12.70;99.90;;;;;;6181242;23;20579;-82
2023/06/13 02:47:55;;;;;;;4.40;2.42;;;12.70;99.90;;;;;;6155220;23;20504;-80
2023/06/13 02:50:21;;;;;;;2.45;2.20;;;12.70;99.90;;;;;;6155311;23;20005;-79
2023/06/13 02:52:47;;;;;;;2.80;2.03;;;12.70;99.90;;;;;;6154620;23;20062;-79
2023/06/13 02:55:12;;;;;;;2.35;2.00;;;12.70;99.90;;;;;;6153387;23;20465;-82
2023/06/13 02:57:38;;;;;;;3.53;2.45;;;12.70;99.90;;;;;;6154482;23;20049;-79
2023/06/13 03:00:09;;;;;;;2.80;2.35;;;12.70;99.90;;;;;;6153202;23;20013;-79
2023/06/13 03:02:38;;;;;;;9.43;2.83;;;12.70;99.90;;;;;;6154398;23;20013;-78
2023/06/13 03:05:11;;;;;;;4.88;2.45;;;12.70;99.90;;;;;;6180446;23;19997;-80
2023/06/13 03:07:42;;;;;;;3.58;2.35;;;12.70;99.90;;;;;;6153933;23;20024;-80
2023/06/13 03:10:08;;;;;;;3.05;2.28;;;12.70;99.90;;;;;;6153874;23;20001;-80
2023/06/13 03:12:34;;;;;;;3.55;2.10;;;12.70;99.90;;;;;;6180606;23;20081;-80
2023/06/13 03:15:00;;;;;;;3.15;2.42;;;12.60;99.90;;;;;;6152752;23;20320;-80
2023/06/13 03:17:25;;;;;;;2.80;2.40;;;12.60;99.90;;;;;;6153578;23;20016;-80
2023/06/13 03:19:51;;;;;;;6.32;2.55;;;12.60;99.90;;;;;;6153898;23;20056;-79
2023/06/13 03:22:17;;;;;;;4.32;2.58;;;12.60;99.90;;;;;;6153385;23;20394;-81
2023/06/13 03:24:44;;;;;;;2.80;2.28;;;12.60;99.90;;;;;;6152967;23;20059;-80
2023/06/13 03:27:12;;;;;;;4.47;3.10;;;12.60;99.90;;;;;;6179799;23;19997;-79
2023/06/13 03:29:38;;;;;;;6.13;2.90;;;12.50;99.90;;;;;;6153061;23;20033;-79
2023/06/13 03:32:04;;;;;;;4.05;3.00;;;12.50;99.90;;;;;;6153571;23;20036;-80
2023/06/13 03:34:32;;;;;;;4.05;2.58;;;12.50;99.90;;;;;;6153674;23;20032;-80
2023/06/13 03:37:03;;;;;;;2.72;2.35;;;12.50;99.90;;;;;;6181116;23;20001;-80
2023/06/13 03:39:28;;;;;;;4.70;2.83;;;12.50;99.90;;;;;;6151865;23;20434;-79
2023/06/13 03:41:54;;;;;;;3.10;2.80;;;12.50;99.90;;;;;;6153829;23;20009;-80
2023/06/13 03:44:20;;;;;;;4.97;3.00;;;12.50;99.90;;;;;;6152630;23;20051;-79
2023/06/13 03:46:45;;;;;;;4.93;2.50;;;12.40;99.90;;;;;;6153698;23;20342;-79
2023/06/13 03:49:11;;;;;;;4.72;2.78;;;12.50;99.90;;;;;;6154569;23;20425;-81
2023/06/13 03:51:37;;;;;;;5.53;3.10;;;12.50;99.90;;;;;;6180182;23;20004;-80
2023/06/13 03:54:03;;;;;;;5.93;3.17;;;12.60;99.90;;;;;;6179749;23;20013;-80
2023/06/13 03:56:28;;;;;;;4.07;3.08;;;12.40;99.90;;;;;;6153904;23;20009;-80
2023/06/13 03:58:54;;;;;;;4.40;2.30;;;12.50;99.90;;;;;;6153545;23;20013;-81
2023/06/13 04:01:19;;;;;;;5.22;2.85;;;12.40;99.90;;;;;;6152996;23;20013;-80
2023/06/13 04:03:46;;;;;;;3.97;2.95;;;12.40;99.90;;;;;;6153461;23;20013;-81
2023/06/13 04:06:11;;;;;;;3.08;2.30;;;12.40;99.90;;;;;;6180108;23;20004;-80
2023/06/13 04:08:38;;;;;;;4.30;3.30;;;12.40;99.90;;;;;;6153722;23;20017;-81
2023/06/13 04:11:04;;;;;;;4.55;2.80;;;12.40;99.90;;;;;;6153630;23;20054;-80
2023/06/13 04:13:30;;;;;;;5.88;2.63;;;12.50;99.90;;;;;;6177585;23;20396;-81
2023/06/13 04:15:55;;;;;;;3.75;2.67;;;12.50;99.90;;;;;;6180212;23;20085;-80
2023/06/13 04:18:23;;;;;;;5.30;3.20;;;12.50;99.90;;;;;;6154081;23;20062;-80
2023/06/13 04:20:52;;;;;;;5.47;2.63;;;12.50;99.90;;;;;;6153629;23;20188;-80
2023/06/13 04:23:18;;;;;;;6.00;3.53;;;12.50;99.90;;;;;;6154806;23;20005;-80
2023/06/13 04:25:44;;;;;;;3.38;2.60;;;12.60;99.90;;;;;;6152856;23;20009;-81
2023/06/13 04:28:13;;;;;;;4.90;2.78;;;12.60;99.90;;;;;;6153363;23;20060;-80
2023/06/13 04:30:40;;;;;;;6.18;3.05;;;12.60;99.90;;;;;;6179437;23;20005;-80
2023/06/13 04:33:13;;;;;;;4.50;2.60;;;12.70;99.90;;;;;;6154111;23;20336;-79
2023/06/13 04:35:48;;;;;;;5.32;2.75;;;12.70;99.90;;;;;;6177615;23;19998;-81
2023/06/13 04:38:20;;;;;;;6.20;3.05;;;12.70;99.90;;;;;;6178026;23;20001;-79
2023/06/13 04:40:46;;;;;;;3.35;2.60;;;12.70;99.90;;;;;;6153364;23;20239;-79
2023/06/13 04:43:14;;;;;;;2.58;2.38;;;12.70;99.90;;;;;;6181568;23;20697;-80
2023/06/13 04:45:41;;;;;;;4.60;2.50;;;12.80;99.90;;;;;;6164078;23;20023;-80
2023/06/13 04:48:09;;;;;;;6.22;2.67;;;12.80;99.90;;;;;;6163457;23;20009;-79
2023/06/13 04:50:37;;;;;;;4.68;3.10;;;12.90;99.90;;;;;;6186892;23;20390;-80
2023/06/13 04:53:07;;;;;;;4.68;3.13;;;13.00;99.90;;;;;;6156264;23;20009;-80
2023/06/13 04:55:35;;;;;;;3.47;3.05;;;13.00;99.90;;;;;;6156373;23;20001;-79
2023/06/13 04:58:01;;;;;;;10.20;2.78;;;13.00;99.90;;;;;;6156518;23;20101;-79
2023/06/13 05:00:27;;;;;;;6.32;3.10;;;13.10;99.90;;;;;;6156177;23;20062;-82
2023/06/13 05:02:55;;;;;;;7.35;3.55;;;13.10;99.90;;;;;;6156363;23;20040;-79
2023/06/13 05:05:22;;;;;;;6.60;3.25;;;13.10;99.90;;;;;;6155494;23;20013;-80
2023/06/13 05:07:49;;;;;;;7.43;3.30;;;13.10;99.90;;;;;;6155478;23;20001;-80
2023/06/13 05:10:15;;;;;;;2.95;2.67;;;13.20;99.90;;;;;;6156155;23;20509;-80
2023/06/13 05:12:41;;;;;;;4.55;2.30;;;13.20;99.90;;;;;;6181661;23;20047;-81
2023/06/13 05:15:07;;;;;;;2.90;2.65;;;13.30;99.90;;;;;;6155316;23;20009;-79
2023/06/13 05:17:33;;;;;;;4.97;2.88;;;13.30;99.90;;;;;;6182317;23;20005;-80
2023/06/13 05:19:59;;;;;;;4.93;3.00;;;13.30;99.90;;;;;;6156211;23;20005;-80
2023/06/13 05:22:25;;;;;;;3.42;3.10;;;13.40;99.90;;;;;;6156442;23;20016;-80
2023/06/13 05:24:50;;;;;;;7.70;3.42;;;13.40;99.90;;;;;;6183299;23;20086;-83
2023/06/13 05:27:16;;;;;;;4.70;2.75;;;13.50;99.90;;;;;;6180862;23;20031;-79
2023/06/13 05:29:42;;;;;;;6.68;2.95;;;13.60;99.90;;;;;;6181692;23;20013;-78
2023/06/13 05:32:08;;;;;;;6.82;2.92;;;13.70;99.90;;;;;;6154012;23;20033;-80
2023/06/13 05:34:33;;;;;;;3.72;2.80;;;13.80;99.90;;;;;;6154202;23;20449;-79
2023/06/13 05:37:00;;;;;;;4.30;2.65;;;14.00;99.90;;;;;;6155137;23;20009;-79
2023/06/13 05:39:26;;;;;;;4.03;2.75;;;14.10;99.90;;;;;;6153326;23;20035;-79
2023/06/13 05:41:51;;;;;;;2.88;2.22;;;14.30;99.90;;;;;;6180870;23;20001;-80
2023/06/13 05:44:17;;;;;;;3.47;2.38;;;14.40;99.90;;;;;;6154463;23;20016;-80
2023/06/13 05:46:42;;;;;;;4.22;2.40;;;14.60;99.90;;;;;;6181798;23;20001;-79
2023/06/13 05:49:08;;;;;;;3.17;2.88;;;14.80;99.90;;;;;;6155054;23;20008;-78
2023/06/13 05:51:34;;;;;;;4.30;2.20;;;14.90;99.90;;;;;;6181281;23;20068;-79
2023/06/13 05:53:59;;;;;;;4.88;2.97;;;15.10;99.90;;;;;;6153941;23;20282;-79
2023/06/13 05:56:25;;;;;;;5.22;2.53;;;15.30;99.90;;;;;;6181946;23;20005;-80
2023/06/13 05:58:51;;;;;;;5.82;2.30;;;15.40;99.90;;;;;;6151267;23;20012;-79
2023/06/13 06:01:20;;;;;;;3.63;2.13;;;15.60;99.90;;;;;;6154709;23;20013;-80
2023/06/13 06:03:46;;;;;;;6.38;2.72;;;15.70;99.90;;;;;;6180722;23;20029;-81
2023/06/13 06:06:12;;;;;;;5.30;2.10;;;15.90;99.90;;;;;;6153640;23;20005;-79
2023/06/13 06:08:38;;;;;;;2.85;2.20;;;16.10;99.90;;;;;;6181736;23;20001;-79
2023/06/13 06:11:04;;;;;;;4.43;2.20;;;16.30;99.90;;;;;;6155189;23;20005;-78
2023/06/13 06:13:29;;;;;;;2.85;1.88;;;16.50;99.90;;;;;;6153042;23;20001;-79
2023/06/13 06:15:55;;;;;;;2.35;2.10;;;16.60;99.90;;;;;;6153047;23;20005;-78
2023/06/13 06:18:21;;;;;;;3.78;2.08;;;16.80;99.90;;;;;;6154889;23;20005;-79
2023/06/13 06:20:47;;;;;;;4.35;2.20;;;16.90;99.90;;;;;;6155233;23;20036;-79
2023/06/13 06:23:14;;;;;;;2.88;1.77;;;17.10;99.90;;;;;;6153643;23;20005;-80
2023/06/13 06:25:40;;;;;;;4.25;2.65;;;17.10;99.90;;;;;;6153187;23;20076;-79
2023/06/13 06:28:05;;;;;;;1.77;1.42;;;17.40;99.90;;;;;;6179898;23;20004;-78
2023/06/13 06:30:31;;;;;;;3.15;1.73;;;17.60;99.90;;;;;;6153587;23;20009;-81
2023/06/13 06:32:57;;;;;;;4.45;1.85;;;17.70;99.90;;;;;;6155065;23;20067;-79
2023/06/13 06:35:22;;;;;;;2.90;2.25;;;17.90;99.90;;;;;;6180139;23;20078;-79
2023/06/13 06:37:48;;;;;;;2.83;2.38;;;18.00;99.90;;;;;;6181888;23;20005;-79
2023/06/13 06:40:13;;;;;;;2.85;1.73;;;18.00;99.90;;;;;;6153286;23;20016;-79
2023/06/13 06:42:39;;;;;;;3.03;1.80;;;18.10;99.90;;;;;;6153363;23;20009;-78
2023/06/13 06:45:05;;;;;;;5.32;2.33;;;18.30;99.90;;;;;;6154139;23;20438;-80
2023/06/13 06:47:31;;;;;;;3.05;1.98;;;18.40;99.90;;;;;;6155260;23;20024;-80
2023/06/13 06:49:56;;;;;;;4.40;2.25;;;18.50;99.90;;;;;;6154779;23;19993;-80
2023/06/13 06:52:22;;;;;;;4.80;1.92;;;18.60;99.90;;;;;;6154939;23;19997;-80
2023/06/13 06:54:48;;;;;;;7.13;2.35;;;18.80;99.90;;;;;;6180430;23;20001;-79
2023/06/13 06:57:13;;;;;;;6.40;1.67;;;19.00;99.90;;;;;;6181071;23;20009;-79
2023/06/13 06:59:39;;;;;;;4.72;2.08;;;19.20;99.90;;;;;;6155339;23;20011;-80
2023/06/13 07:02:05;;;;;;;3.47;1.73;;;19.20;99.90;;;;;;6181258;23;20422;-81
2023/06/13 07:04:32;;;;;;;1.98;1.73;;;19.40;99.90;;;;;;6154664;23;20005;-81
2023/06/13 07:06:57;;;;;;;2.65;1.88;;;19.30;99.90;;;;;;6181755;23;20059;-80
2023/06/13 07:09:23;;;;;;;3.63;1.60;;;19.40;99.90;;;;;;6152291;23;20005;-79
2023/06/13 07:11:48;;;;;;;2.90;1.95;;;19.50;99.90;;;;;;6155282;23;20001;-79
2023/06/13 07:14:14;;;;;;;3.20;1.75;;;19.60;99.90;;;;;;6181270;23;20392;-80
2023/06/13 07:16:39;;;;;;;2.75;2.00;;;19.70;99.90;;;;;;6155844;23;20005;-80
2023/06/13 07:19:05;;;;;;;3.22;1.88;;;19.80;99.90;;;;;;6153920;23;20009;-81
2023/06/13 07:21:30;;;;;;;2.28;1.70;;;20.00;99.70;;;;;;6155775;23;20318;-84
2023/06/13 07:23:56;;;;;;;4.13;1.70;;;19.90;99.00;;;;;;6154049;23;20440;-83
2023/06/13 07:26:21;;;;;;;2.22;1.77;;;20.00;97.70;;;;;;6155120;23;20007;-79
2023/06/13 07:28:47;;;;;;;4.53;1.98;;;19.70;98.40;;;;;;6154091;23;20400;-80
2023/06/13 07:31:13;;;;;;;3.75;1.60;;;19.80;98.30;;;;;;6180383;23;20013;-81
2023/06/13 07:33:39;;;;;;;3.30;2.25;;;19.90;99.00;;;;;;6154165;23;20012;-85
2023/06/13 07:36:05;;;;;;;3.80;1.83;;;20.10;98.10;;;;;;6154284;23;20021;-82
2023/06/13 07:38:30;;;;;;;1.77;1.67;;;20.20;97.90;;;;;;6181153;23;20005;-81
2023/06/13 07:40:56;;;;;;;3.00;1.83;;;20.40;98.40;;;;;;6154492;23;20007;-79
2023/06/13 07:43:22;;;;;;;3.55;1.73;;;20.60;97.50;;;;;;6154969;23;20095;-81
2023/06/13 07:45:47;;;;;;;2.70;2.10;;;20.90;97.40;;;;;;6153928;23;20001;-81
2023/06/13 07:48:13;;;;;;;5.10;2.05;;;21.10;96.80;;;;;;6180707;23;20008;-82
2023/06/13 07:50:42;;;;;;;2.45;1.70;;;21.20;96.60;;;;;;6155150;23;20001;-80
2023/06/13 07:53:10;;;;;;;3.30;2.03;;;21.30;96.90;;;;;;6181235;23;19997;-80
2023/06/13 07:55:36;;;;;;;5.80;2.30;;;21.40;96.90;;;;;;6155020;23;20063;-81
2023/06/13 07:58:03;;;;;;;2.33;1.67;;;21.30;96.70;;;;;;6183562;23;20053;-82
2023/06/13 08:00:29;;;;;;;3.45;1.88;;;21.40;96.90;;;;;;6155554;23;20009;-80
2023/06/13 08:02:55;;;;;;;3.13;2.25;;;21.60;96.50;;;;;;6155810;23;20040;-80
2023/06/13 08:05:21;;;;;;;3.92;1.88;;;21.80;95.60;;;;;;6156246;23;20009;-80
2023/06/13 08:07:47;;;;;;;4.45;1.95;;;22.00;95.30;;;;;;6155222;23;20035;-81
2023/06/13 08:10:12;;;;;;;3.72;2.03;;;22.10;95.30;;;;;;6155307;23;20016;-81
2023/06/13 08:12:39;;;;;;;1.90;1.63;;;22.20;94.40;;;;;;6156594;23;20005;-80
2023/06/13 08:15:05;;;;;;;2.78;2.10;;;22.30;94.00;;;;;;6182483;23;20005;-80
2023/06/13 08:17:31;;;;;;;5.43;2.42;;;22.50;93.60;;;;;;6158051;23;20386;-81
2023/06/13 08:19:56;;;;;;;3.45;2.13;;;22.50;93.00;;;;;;6158919;23;20005;-80
2023/06/13 08:22:22;;;;;;;5.38;2.25;;;22.50;93.40;;;;;;6158727;23;20016;-81
2023/06/13 08:24:48;;;;;;;3.88;2.53;;;22.70;92.90;;;;;;6157937;23;20005;-83
2023/06/13 08:27:15;;;;;;;4.07;1.95;;;22.60;91.90;;;;;;6160950;23;19997;-81
2023/06/13 08:29:41;;;;;;;8.43;1.83;;;22.70;92.20;;;;;;6184295;23;20020;-80
2023/06/13 08:32:07;;;;;;;2.85;1.90;;;22.70;92.80;;;;;;6157533;23;20017;-82
2023/06/13 08:34:33;;;;;;;3.97;1.73;;;22.80;92.10;;;;;;6156454;23;20024;-84
2023/06/13 08:37:00;;;;;;;2.83;2.13;;;22.90;91.70;;;;;;6155894;23;20025;-80
2023/06/13 08:39:26;;;;;;;4.97;2.20;;;22.70;91.80;;;;;;6157065;23;20005;-81
2023/06/13 08:41:52;;;;;;;5.03;1.92;;;22.60;91.90;;;;;;6156722;23;20498;-80
2023/06/13 08:44:19;;;;;;;2.65;1.95;;;22.90;92.00;;;;;;6157928;23;20001;-80
2023/06/13 08:46:44;;;;;;;3.63;2.05;;;23.20;91.50;;;;;;6185504;23;20446;-82
2023/06/13 08:49:10;;;;;;;2.65;2.13;;;23.40;91.00;;;;;;6184019;23;20028;-80
2023/06/13 08:51:37;;;;;;;4.18;2.47;;;23.50;91.30;;;;;;6184707;23;19997;-80
2023/06/13 08:54:05;;;;;;;4.35;2.05;;;23.60;90.40;;;;;;6164096;23;20073;-80
2023/06/13 08:56:37;;;;;;;3.88;2.60;;;23.60;90.50;;;;;;6172819;23;20032;-83
2023/06/13 08:59:13;;;;;;;6.15;2.08;;;23.90;89.70;;;;;;6173936;23;20005;-82
2023/06/13 09:01:39;;;;;;;3.25;2.55;;;23.70;90.00;;;;;;6159373;23;20482;-84
2023/06/13 09:04:08;;;;;;;2.10;1.67;;;23.70;89.00;;;;;;6187099;23;20005;-81
2023/06/13 09:06:37;;;;;;;4.93;2.28;;;23.50;90.00;;;;;;6159721;23;20084;-80
2023/06/13 09:09:06;;;;;;;5.68;2.35;;;23.70;90.20;;;;;;6159695;23;20005;-82
2023/06/13 09:11:33;;;;;;;4.53;2.55;;;23.80;89.10;;;;;;6159083;23;20320;-80
2023/06/13 09:14:00;;;;;;;3.17;2.00;;;23.90;88.30;;;;;;6160014;23;20520;-80
2023/06/13 09:16:27;;;;;;;4.05;2.25;;;23.60;87.40;;;;;;6158606;23;20009;-80
2023/06/13 09:18:53;;;;;;;6.22;1.80;;;23.70;88.30;;;;;;6187914;23;20005;-81
2023/06/13 09:21:20;;;;;;;4.95;2.50;;;23.60;88.10;;;;;;6160057;23;20039;-81
2023/06/13 09:23:48;;;;;;;4.65;2.38;;;23.80;88.10;;;;;;6185216;23;20005;-83
2023/06/13 09:26:15;;;;;;;3.40;2.10;;;23.80;87.80;;;;;;6160658;23;20332;-84
2023/06/13 09:28:42;;;;;;;2.45;2.17;;;24.00;86.70;;;;;;6159796;23;20141;-80
2023/06/13 09:31:08;;;;;;;2.75;2.20;;;24.10;87.00;;;;;;6160122;23;20045;-82
2023/06/13 09:33:34;;;;;;;7.00;2.17;;;24.20;86.30;;;;;;6186077;23;19997;-81
2023/06/13 09:36:00;;;;;;;3.53;2.00;;;24.00;86.80;;;;;;6157932;23;20001;-82
2023/06/13 09:38:26;;;;;;;2.47;1.95;;;24.00;87.50;;;;;;6186981;23;20005;-81
2023/06/13 09:40:56;;;;;;;4.82;2.05;;;24.20;86.40;;;;;;6157812;23;20378;-82
2023/06/13 09:43:23;;;;;;;6.63;2.25;;;24.20;84.10;;;;;;6162730;23;20197;-81
2023/06/13 09:45:49;;;;;;;5.32;2.67;;;24.30;84.50;;;;;;6161823;23;20005;-82
2023/06/13 09:48:15;;;;;;;4.32;2.40;;;24.40;83.50;;;;;;6158126;23;20302;-81
2023/06/13 09:50:42;;;;;;;2.50;2.30;;;24.00;80.70;;;;;;6159196;23;20048;-82
2023/06/13 09:53:08;;;;;;;3.35;2.67;;;23.80;82.00;;;;;;6158768;23;20071;-81
2023/06/13 09:55:35;;;;;;;4.03;1.80;;;23.90;81.80;;;;;;6160204;23;20013;-81
2023/06/13 09:58:01;;;;;;;7.00;2.38;;;24.00;82.60;;;;;;6160117;23;20032;-82
2023/06/13 10:00:27;;;;;;;4.85;2.10;;;24.00;81.20;;;;;;6184192;23;20064;-81
2023/06/13 10:02:53;;;;;;;2.15;1.92;;;24.10;81.20;;;;;;6158000;23;20005;-80
2023/06/13 10:05:18;;;;;;;3.97;1.83;;;23.90;80.30;;;;;;6157657;23;20411;-82
2023/06/13 10:07:44;;;;;;;5.13;2.70;;;23.80;80.10;;;;;;6185597;23;20051;-81
2023/06/13 10:10:10;;;;;;;4.35;2.75;;;23.60;79.80;;;;;;6157357;23;20012;-81
2023/06/13 10:12:45;;;;;;;4.53;2.35;;;23.50;82.40;;;;;;6186606;23;20047;-80
2023/06/13 10:15:14;;;;;;;3.50;2.25;;;23.60;83.80;;;;;;6186182;23;20005;-81
2023/06/13 10:17:45;;;;;;;2.70;2.28;;;23.70;83.90;;;;;;6157431;23;20112;-83
2023/06/13 10:20:15;;;;;;;4.32;2.10;;;23.60;83.60;;;;;;6158427;23;20438;-81
2023/06/13 10:22:41;;;;;;;4.00;2.30;;;23.60;81.60;;;;;;6156863;23;20366;-82
2023/06/13 10:25:08;;;;;;;4.00;2.00;;;23.70;82.50;;;;;;6158702;23;20020;-81
2023/06/13 10:27:40;;;;;;;3.72;2.47;;;23.80;82.70;;;;;;6183790;23;20024;-81
2023/06/13 10:30:31;;;;;;;2.80;2.00;;;24.00;82.70;;;;;;6185604;23;20119;-81
2023/06/13 10:33:11;;;;;;;4.63;2.15;;;24.10;82.10;;;;;;6159210;23;20312;-80
2023/06/13 10:36:07;;;;;;;2.60;2.40;;;24.00;79.50;;;;;;6184758;23;20009;-81
2023/06/13 10:38:45;;;;;;;2.67;2.25;;;23.90;81.30;;;;;;6160607;23;20005;-84
2023/06/13 10:41:29;;;;;;;6.38;2.30;;;24.00;82.40;;;;;;6161157;23;20016;-82
2023/06/13 10:44:09;;;;;;;4.15;2.17;;;24.10;81.50;;;;;;6161409;23;20005;-81
2023/06/13 10:46:35;;;;;;;2.88;2.55;;;24.20;80.80;;;;;;6162699;23;20392;-81
2023/06/13 10:49:02;;;;;;;3.55;2.03;;;24.30;80.70;;;;;;6163343;23;20143;-84
2023/06/13 10:51:30;;;;;;;4.05;2.47;;;24.30;81.30;;;;;;6163922;23;20001;-83
2023/06/13 10:54:08;;;;;;;3.15;2.40;;;24.30;82.20;;;;;;6188973;23;20586;-82
2023/06/13 10:56:37;;;;;;;4.13;2.70;;;24.20;81.60;;;;;;6163877;23;20411;-85
2023/06/13 10:59:12;;;;;;;2.92;2.45;;;24.20;82.50;;;;;;6189917;23;20032;-82
2023/06/13 11:01:39;;;;;;;2.85;2.25;;;24.20;83.10;;;;;;6160353;23;20017;-82
2023/06/13 11:04:10;;;;;;;3.92;2.50;;;24.30;83.20;;;;;;6164185;23;20077;-81
2023/06/13 11:06:37;;;;;;;3.85;2.08;;;24.30;82.60;;;;;;6160054;23;20036;-81
2023/06/13 11:09:09;;;;;;;3.08;2.38;;;24.40;82.70;;;;;;6157619;23;20001;-82
2023/06/13 11:11:46;;;;;;;5.78;2.75;;;24.30;82.50;;;;;;6185438;23;20008;-85
2023/06/13 11:14:12;;;;;;;5.35;3.50;;;24.30;81.70;;;;;;6184506;23;20001;-83
2023/06/13 11:16:40;;;;;;;4.03;2.78;;;24.20;83.30;;;;;;6159113;23;20004;-82
2023/06/13 11:19:13;;;;;;;3.38;2.58;;;24.10;83.50;;;;;;6161013;23;20019;-82
2023/06/13 11:21:46;;;;;;;3.03;2.60;;;24.20;83.40;;;;;;6158621;23;20005;-83
2023/06/13 11:24:16;;;;;;;4.40;2.92;;;24.20;84.00;;;;;;6157623;23;20020;-82
2023/06/13 11:26:43;;;;;;;7.57;2.78;;;24.20;82.60;;;;;;6184554;23;19996;-82
2023/06/13 11:29:10;;;;;;;6.20;3.22;;;24.20;83.60;;;;;;6163273;23;20008;-81
2023/06/13 11:31:38;;;;;;;5.10;2.97;;;24.10;84.00;;;;;;6188439;23;20013;-82
2023/06/13 11:34:13;;;;;;;4.40;2.25;;;24.10;82.90;;;;;;6157992;23;20036;-80
2023/06/13 11:36:43;;;;;;;8.00;3.28;;;24.20;83.70;;;;;;6157434;23;20306;-80
2023/06/13 11:39:15;;;;;;;2.97;2.63;;;24.40;84.60;;;;;;6158361;23;20005;-80
2023/06/13 11:41:43;;;;;;;5.03;2.28;;;24.50;84.00;;;;;;6159334;23;20013;-82
2023/06/13 11:44:09;;;;;;;5.22;3.03;;;24.60;84.00;;;;;;6183708;23;20033;-82
2023/06/13 11:46:41;;;;;;;3.17;2.50;;;24.60;83.90;;;;;;6185021;23;20092;-82
2023/06/13 11:49:11;;;;;;;3.95;2.83;;;24.60;83.50;;;;;;6184350;23;20001;-81
2023/06/13 11:51:37;;;;;;;5.13;2.50;;;24.70;83.10;;;;;;6158798;23;20756;-81
2023/06/13 11:54:03;;;;;;;4.15;2.78;;;24.70;83.20;;;;;;6183627;23;20005;-86
2023/06/13 11:56:34;;;;;;;4.82;2.75;;;24.80;84.10;;;;;;6161075;23;20013;-82
2023/06/13 11:59:00;;;;;;;4.85;3.00;;;25.00;83.20;;;;;;6163056;23;20586;-82
2023/06/13 12:01:26;;;;;;;5.03;2.65;;;25.10;81.90;;;;;;6183867;23;20021;-82
2023/06/13 12:03:53;;;;;;;4.32;2.70;;;25.20;82.10;;;;;;6159712;23;20005;-81
2023/06/13 12:06:19;;;;;;;3.75;2.95;;;25.10;80.90;;;;;;6184732;23;19997;-81
2023/06/13 12:08:47;;;;;;;5.72;3.15;;;25.00;79.60;;;;;;6186762;23;20064;-83
2023/06/13 12:11:14;;;;;;;2.70;2.50;;;24.90;79.40;;;;;;6186073;23;20099;-83
2023/06/13 12:13:40;;;;;;;4.32;2.78;;;25.00;80.50;;;;;;6159265;23;20076;-81
2023/06/13 12:16:07;;;;;;;3.40;2.85;;;25.10;81.00;;;;;;6183838;23;20001;-82
2023/06/13 12:18:32;;;;;;;4.75;3.05;;;25.00;78.70;;;;;;6158831;23;20036;-81
2023/06/13 12:21:00;;;;;;;3.22;2.78;;;24.90;80.00;;;;;;6159616;23;20001;-82
2023/06/13 12:23:27;;;;;;;3.30;2.90;;;24.90;80.10;;;;;;6159683;23;20074;-85
2023/06/13 12:25:53;;;;;;;3.50;3.20;;;24.80;79.00;;;;;;6159199;23;20624;-85
2023/06/13 12:28:19;;;;;;;2.42;2.22;;;24.90;79.30;;;;;;6157611;23;20005;-81
2023/06/13 12:30:49;;;;;;;6.78;2.33;;;24.90;79.50;;;;;;6158337;23;20013;-81
2023/06/13 12:33:18;;;;;;;4.68;2.67;;;24.90;79.90;;;;;;6186070;23;20005;-83
2023/06/13 12:35:55;;;;;;;3.25;2.50;;;24.90;79.70;;;;;;6186129;23;20005;-85
2023/06/13 12:38:29;;;;;;;3.67;2.83;;;25.00;79.90;;;;;;6161817;23;20084;-83
2023/06/13 12:40:55;;;;;;;4.60;2.25;;;25.10;79.80;;;;;;6190529;23;20001;-81
2023/06/13 12:43:25;;;;;;;3.50;1.95;;;25.20;78.40;;;;;;6164244;23;20346;-80
2023/06/13 12:45:51;;;;;;;6.15;2.33;;;25.30;76.90;;;;;;6160730;23;20061;-83
2023/06/13 12:48:18;;;;;;;3.50;2.20;;;25.20;76.50;;;;;;6162869;23;20009;-84
2023/06/13 12:50:44;;;;;;;2.40;2.20;;;25.20;77.30;;;;;;6162158;23;20060;-80